74PA weather

Shontz Airport
Zieglerville, Pennsylvania, United States

Public forecast

Using degrees Fahrenheit for public forecast. Weather courtesy of forecast.io.

METAR (pilot weather report)

Closest report is Heritage Field, 5.2 nm (9.6 km) SW. Retrieved 2019/09/16 02:54 UTC (54 minutes ago):

KPTW 160254Z AUTO 00000KT 10SM SCT110 16/16 A3012 RMK AO2 SLP196 T01610156 55000 $

TAF (pilot weather forecast)

Forecast is more than 12 hours old.

Closest forecast is Lehigh Valley International Airport, 21.7 nm (40.1 km) N. Retrieved 2019/09/15 00:22 UTC (1 day ago):

TAF KABE 152320Z 1600/1624 VRB03KT P6SM SKC FM161600 27005KT P6SM SCT150 FM161900 32007KT P6SM BKN070